createdAt,value
2023-03-13T00:00:18.305Z,8.60
2023-03-13T00:03:22.474Z,6.30
2023-03-13T00:06:28.811Z,6.30
2023-03-13T00:09:31.984Z,6.40
2023-03-13T00:12:34.906Z,6.40
2023-03-13T00:15:37.930Z,6.50
2023-03-13T00:18:45.787Z,6.50
2023-03-13T00:21:50.077Z,6.50
2023-03-13T00:24:52.948Z,6.60
2023-03-13T00:27:55.895Z,6.60
2023-03-13T00:31:03.115Z,6.60
2023-03-13T00:34:06.059Z,6.70
2023-03-13T00:37:10.479Z,6.70
2023-03-13T00:40:13.764Z,6.70
2023-03-13T00:43:16.678Z,6.70
2023-03-13T00:46:22.494Z,6.80
2023-03-13T00:49:25.731Z,6.90
2023-03-13T00:52:30.039Z,6.90
2023-03-13T00:55:33.219Z,7.00
2023-03-13T00:58:38.186Z,7.00
2023-03-13T01:01:41.619Z,5.10
2023-03-13T01:04:44.583Z,7.10
2023-03-13T01:07:48.898Z,7.10
2023-03-13T01:10:52.024Z,7.60
2023-03-13T01:13:56.861Z,7.20
2023-03-13T01:16:59.894Z,7.40
2023-03-13T01:20:05.614Z,7.30
2023-03-13T01:23:10.067Z,7.70
2023-03-13T01:26:13.544Z,6.10
2023-03-13T01:29:16.712Z,6.00
2023-03-13T01:32:19.995Z,7.70
2023-03-13T01:35:23.031Z,8.60
2023-03-13T01:38:27.399Z,7.90
2023-03-13T01:41:32.175Z,7.90
2023-03-13T01:44:51.960Z,6.50
2023-03-13T01:47:55.048Z,8.10
2023-03-13T01:51:01.635Z,8.20
2023-03-13T01:54:10.963Z,6.90
2023-03-13T01:57:19.906Z,10.10
2023-03-13T02:00:26.052Z,8.40
2023-03-13T02:03:29.785Z,10.30
2023-03-13T02:06:34.138Z,7.00
2023-03-13T02:09:41.489Z,8.60
2023-03-13T02:12:45.494Z,8.60
2023-03-13T02:15:49.218Z,7.80
2023-03-13T02:18:52.173Z,7.70
2023-03-13T02:21:59.121Z,6.80
2023-03-13T02:25:10.616Z,8.80
2023-03-13T02:28:19.964Z,8.90
2023-03-13T02:31:23.032Z,8.50
2023-03-13T02:34:30.454Z,9.00
2023-03-13T02:37:34.529Z,9.00
2023-03-13T02:40:40.403Z,9.00
2023-03-13T02:43:44.821Z,9.10
2023-03-13T02:46:50.313Z,9.10
2023-03-13T02:49:53.352Z,9.10
2023-03-13T02:52:59.782Z,9.10
2023-03-13T02:56:03.104Z,9.20
2023-03-13T02:59:07.872Z,9.20
2023-03-13T03:02:10.975Z,9.30
2023-03-13T03:05:14.449Z,9.30
2023-03-13T03:08:17.385Z,9.30
2023-03-13T03:11:20.349Z,9.70
2023-03-13T03:14:24.680Z,9.40
2023-03-13T03:17:27.715Z,9.40
2023-03-13T03:20:30.824Z,9.40
2023-03-13T03:23:34.688Z,9.50
2023-03-13T03:26:37.727Z,10.80
2023-03-13T03:29:41.996Z,9.50
2023-03-13T03:32:45.699Z,9.00
2023-03-13T03:35:48.880Z,10.60
2023-03-13T03:38:52.100Z,9.60
2023-03-13T03:41:55.037Z,9.60
2023-03-13T03:44:59.325Z,9.00
2023-03-13T03:48:02.195Z,8.30
2023-03-13T03:51:06.064Z,11.50
2023-03-13T03:54:09.018Z,9.60
2023-03-13T03:57:12.086Z,9.60
2023-03-13T04:00:18.982Z,9.60
2023-03-13T04:03:22.047Z,9.70
2023-03-13T04:06:25.086Z,9.70
2023-03-13T04:09:30.986Z,9.70
2023-03-13T04:12:34.860Z,8.60
2023-03-13T04:15:40.637Z,7.60
2023-03-13T04:18:44.113Z,9.80
2023-03-13T04:21:47.309Z,9.80
2023-03-13T04:24:50.365Z,11.40
2023-03-13T04:27:53.388Z,10.60
2023-03-13T04:30:58.263Z,9.80
2023-03-13T04:34:01.422Z,9.80
2023-03-13T04:37:04.468Z,10.20
2023-03-13T04:40:10.478Z,9.90
2023-03-13T04:43:13.808Z,9.90
2023-03-13T04:46:18.671Z,11.30
2023-03-13T04:49:21.644Z,9.90
2023-03-13T04:52:25.625Z,9.40
2023-03-13T04:55:28.675Z,10.40
2023-03-13T04:58:31.813Z,9.60
2023-03-13T05:01:36.282Z,10.80
2023-03-13T05:04:39.612Z,10.40
2023-03-13T05:07:42.472Z,9.80
2023-03-13T05:10:45.410Z,8.50
2023-03-13T05:13:48.492Z,9.70
2023-03-13T05:16:52.786Z,9.70
2023-03-13T05:19:55.605Z,9.70
2023-03-13T05:22:58.679Z,9.70
2023-03-13T05:26:02.332Z,10.40
2023-03-13T05:29:05.275Z,9.60
2023-03-13T05:32:09.751Z,9.60
2023-03-13T05:35:12.796Z,9.50
2023-03-13T05:38:16.254Z,9.50
2023-03-13T05:41:19.197Z,9.50
2023-03-13T05:44:22.066Z,11.60
2023-03-13T05:47:26.334Z,9.40
2023-03-13T05:50:29.508Z,9.40
2023-03-13T05:53:32.368Z,11.00
2023-03-13T05:56:35.222Z,9.40
2023-03-13T05:59:38.081Z,9.40
2023-03-13T06:02:42.600Z,9.30
2023-03-13T06:05:45.642Z,7.50
2023-03-13T06:08:48.539Z,9.40
2023-03-13T06:11:51.465Z,9.30
2023-03-13T06:14:54.403Z,9.30
2023-03-13T06:17:59.088Z,8.90
2023-03-13T06:21:03.082Z,9.20
2023-03-13T06:24:06.837Z,9.20
2023-03-13T06:27:09.738Z,7.30
2023-03-13T06:30:13.641Z,9.20
2023-03-13T06:33:18.115Z,9.20
2023-03-13T06:36:21.863Z,9.20
2023-03-13T06:39:24.855Z,11.00
2023-03-13T06:42:27.836Z,10.50
2023-03-13T06:45:31.042Z,11.10
2023-03-13T06:48:35.875Z,9.20
2023-03-13T06:51:38.685Z,9.40
2023-03-13T06:54:41.563Z,9.20
2023-03-13T06:57:44.436Z,9.20
2023-03-13T07:00:47.386Z,9.20
2023-03-13T07:03:52.762Z,10.50
2023-03-13T07:06:55.847Z,9.20
2023-03-13T07:09:59.000Z,10.90
2023-03-13T07:13:02.028Z,9.20
2023-03-13T07:16:06.765Z,9.30
2023-03-13T07:19:11.285Z,9.30
2023-03-13T07:22:14.186Z,9.20
2023-03-13T07:25:17.545Z,9.30
2023-03-13T07:28:20.437Z,10.30
2023-03-13T07:31:24.863Z,9.30
2023-03-13T07:34:29.532Z,9.30
2023-03-13T07:37:32.654Z,9.30
2023-03-13T07:40:35.582Z,11.00
2023-03-13T07:43:38.490Z,9.30
2023-03-13T07:46:41.980Z,9.30
2023-03-13T07:49:46.836Z,9.30
2023-03-13T07:52:49.871Z,9.30
2023-03-13T07:55:54.494Z,8.00
2023-03-13T07:58:57.552Z,9.30
2023-03-13T08:02:00.559Z,11.40
2023-03-13T08:05:05.399Z,9.30
2023-03-13T08:08:08.842Z,9.30
2023-03-13T08:11:13.699Z,9.30
2023-03-13T08:14:16.740Z,11.30
2023-03-13T08:17:19.701Z,9.40
2023-03-13T08:20:24.084Z,10.20
2023-03-13T08:23:26.987Z,10.30
2023-03-13T08:26:31.678Z,9.40
2023-03-13T08:29:34.732Z,9.50
2023-03-13T08:32:38.071Z,9.70
2023-03-13T08:35:42.565Z,9.50
2023-03-13T08:38:46.714Z,11.20
2023-03-13T08:41:49.837Z,9.40
2023-03-13T08:44:52.765Z,10.00
2023-03-13T08:47:55.761Z,11.40
2023-03-13T08:51:07.920Z,9.40
2023-03-13T08:54:11.335Z,9.40
2023-03-13T08:57:15.417Z,11.30
2023-03-13T09:00:19.938Z,9.40
2023-03-13T09:03:23.191Z,9.40
2023-03-13T09:06:27.453Z,9.40
2023-03-13T09:09:30.359Z,9.40
2023-03-13T09:12:33.382Z,9.40
2023-03-13T09:15:36.657Z,9.40
2023-03-13T09:18:39.946Z,9.40
2023-03-13T09:21:45.136Z,9.40
2023-03-13T09:24:48.086Z,10.30
2023-03-13T09:27:51.000Z,9.40
2023-03-13T09:30:54.521Z,9.40
2023-03-13T09:33:57.686Z,9.40
2023-03-13T09:37:01.874Z,9.40
2023-03-13T09:40:05.918Z,7.40
2023-03-13T09:43:25.997Z,9.10
2023-03-13T09:46:37.059Z,7.60
2023-03-13T09:49:43.318Z,9.50
2023-03-13T09:52:52.074Z,8.20
2023-03-13T09:55:55.838Z,8.00
2023-03-13T09:59:03.302Z,11.70
2023-03-13T10:02:20.445Z,9.60
2023-03-13T10:05:26.548Z,9.60
2023-03-13T10:08:33.164Z,8.70
2023-03-13T10:11:42.566Z,9.70
2023-03-13T10:14:54.815Z,9.50
2023-03-13T10:18:00.216Z,9.80
2023-03-13T10:21:15.044Z,9.90
2023-03-13T10:24:28.433Z,10.00
2023-03-13T10:27:31.582Z,10.10
2023-03-13T10:30:36.331Z,10.20
2023-03-13T10:33:39.606Z,10.40
2023-03-13T10:36:44.759Z,12.20
2023-03-13T10:39:49.074Z,10.70
2023-03-13T10:42:53.556Z,10.90
2023-03-13T10:45:56.833Z,11.10
2023-03-13T10:49:02.706Z,11.30
2023-03-13T10:52:08.498Z,13.70
2023-03-13T10:55:14.734Z,11.60
2023-03-13T10:58:21.988Z,11.80
2023-03-13T11:01:26.572Z,11.90
2023-03-13T11:04:34.382Z,12.00
2023-03-13T11:07:40.481Z,12.20
2023-03-13T11:10:55.623Z,12.30
2023-03-13T11:14:10.039Z,10.20
2023-03-13T11:17:22.349Z,13.80
2023-03-13T11:20:28.274Z,14.50
2023-03-13T11:23:35.277Z,12.60
2023-03-13T11:26:55.098Z,12.60
2023-03-13T11:30:17.233Z,12.70
2023-03-13T11:33:29.969Z,12.10
2023-03-13T11:36:37.480Z,12.80
2023-03-13T11:39:50.818Z,12.80
2023-03-13T11:43:25.396Z,12.90
2023-03-13T11:46:39.750Z,12.90
2023-03-13T11:49:59.811Z,12.80
2023-03-13T11:53:23.147Z,14.00
2023-03-13T11:56:31.445Z,11.10
2023-03-13T11:59:46.014Z,13.10
2023-03-13T12:02:52.692Z,13.20
2023-03-13T12:05:58.072Z,13.20
2023-03-13T12:09:11.985Z,13.20
2023-03-13T12:12:22.204Z,13.30
2023-03-13T12:15:30.834Z,13.40
2023-03-13T12:18:38.635Z,13.40
2023-03-13T12:21:47.392Z,13.20
2023-03-13T12:24:56.243Z,13.50
2023-03-13T12:28:11.541Z,13.60
2023-03-13T12:31:22.817Z,13.70
2023-03-13T12:34:31.956Z,13.80
2023-03-13T12:37:42.828Z,13.90
2023-03-13T12:40:52.923Z,12.10
2023-03-13T12:44:08.390Z,13.00
2023-03-13T12:47:18.736Z,14.10
2023-03-13T12:50:33.930Z,14.30
2023-03-13T12:54:13.943Z,12.70
2023-03-13T12:57:28.814Z,14.10
2023-03-13T13:00:34.139Z,14.90
2023-03-13T13:03:40.328Z,14.60
2023-03-13T13:06:57.321Z,14.70
2023-03-13T13:10:17.752Z,14.80
2023-03-13T13:13:31.927Z,15.90
2023-03-13T13:16:35.162Z,16.80
2023-03-13T13:19:47.804Z,15.00
2023-03-13T13:22:52.697Z,16.70
2023-03-13T13:25:57.343Z,15.20
2023-03-13T13:29:01.563Z,13.70
2023-03-13T13:32:06.747Z,15.30
2023-03-13T13:35:26.686Z,15.40
2023-03-13T13:38:37.067Z,13.50
2023-03-13T13:41:40.344Z,15.40
2023-03-13T13:44:59.041Z,15.40
2023-03-13T13:48:28.218Z,15.50
2023-03-13T13:51:32.723Z,15.50
2023-03-13T13:54:56.027Z,14.60
2023-03-13T13:58:05.828Z,16.60
2023-03-13T14:01:17.157Z,16.60
2023-03-13T14:04:28.146Z,15.40
2023-03-13T14:07:44.159Z,16.70
2023-03-13T14:10:52.211Z,15.40
2023-03-13T14:14:10.420Z,15.40
2023-03-13T14:17:13.685Z,15.40
2023-03-13T14:20:31.925Z,15.40
2023-03-13T14:23:42.565Z,15.40
2023-03-13T14:26:46.303Z,15.10
2023-03-13T14:30:02.005Z,15.40
2023-03-13T14:33:05.420Z,15.40
2023-03-13T14:36:10.126Z,15.40
2023-03-13T14:39:19.665Z,15.40
2023-03-13T14:42:23.704Z,15.00
2023-03-13T14:45:30.328Z,15.80
2023-03-13T14:48:35.275Z,15.40
2023-03-13T14:51:41.255Z,15.40
2023-03-13T14:54:55.887Z,14.60
2023-03-13T14:58:01.106Z,15.50
2023-03-13T15:01:14.693Z,15.50
2023-03-13T15:04:17.652Z,14.00
2023-03-13T15:07:21.280Z,16.80
2023-03-13T15:10:28.513Z,15.50
2023-03-13T15:13:37.038Z,15.50
2023-03-13T15:16:40.324Z,15.60
2023-03-13T15:19:44.094Z,15.50
2023-03-13T15:22:47.649Z,15.50
2023-03-13T15:25:52.445Z,15.50
2023-03-13T15:28:58.913Z,15.50
2023-03-13T15:32:04.154Z,15.10
2023-03-13T15:35:25.498Z,16.10
2023-03-13T15:38:29.029Z,15.50
2023-03-13T15:41:34.487Z,15.50
2023-03-13T15:44:38.068Z,15.50
2023-03-13T15:47:41.922Z,15.50
2023-03-13T15:50:45.523Z,15.40
2023-03-13T15:53:49.441Z,15.40
2023-03-13T15:56:54.263Z,15.40
2023-03-13T15:59:57.166Z,15.40
2023-03-13T16:03:01.294Z,15.30
2023-03-13T16:06:14.703Z,15.50
2023-03-13T16:09:18.254Z,16.60
2023-03-13T16:12:22.701Z,15.30
2023-03-13T16:15:26.141Z,15.20
2023-03-13T16:18:30.491Z,14.90
2023-03-13T16:21:36.532Z,15.20
2023-03-13T16:24:40.228Z,15.10
2023-03-13T16:27:45.190Z,15.10
2023-03-13T16:30:48.848Z,15.10
2023-03-13T16:33:54.149Z,15.00
2023-03-13T16:36:57.395Z,14.90
2023-03-13T16:40:01.308Z,14.50
2023-03-13T16:43:05.692Z,14.70
2023-03-13T16:46:14.987Z,14.70
2023-03-13T16:49:20.756Z,14.60
2023-03-13T16:52:23.830Z,14.50
2023-03-13T16:55:28.633Z,14.50
2023-03-13T16:58:34.216Z,14.40
2023-03-13T17:01:37.589Z,16.40
2023-03-13T17:04:44.976Z,14.30
2023-03-13T17:07:51.612Z,14.20
2023-03-13T17:10:55.222Z,14.10
2023-03-13T17:14:00.209Z,12.10
2023-03-13T17:17:04.842Z,14.10
2023-03-13T17:20:15.039Z,15.90
2023-03-13T17:23:26.116Z,14.00
2023-03-13T17:26:32.449Z,14.00
2023-03-13T17:29:38.596Z,13.90
2023-03-13T17:32:41.709Z,13.90
2023-03-13T17:35:46.931Z,14.30
2023-03-13T17:38:52.459Z,13.90
2023-03-13T17:41:57.591Z,13.80
2023-03-13T17:45:02.350Z,12.90
2023-03-13T17:48:07.288Z,13.70
2023-03-13T17:51:15.983Z,13.60
2023-03-13T17:54:19.611Z,13.70
2023-03-13T17:57:24.664Z,13.60
2023-03-13T18:00:31.867Z,13.60
2023-03-13T18:03:35.537Z,13.50
2023-03-13T18:06:42.835Z,13.50
2023-03-13T18:09:47.545Z,13.50
2023-03-13T18:12:52.787Z,13.50
2023-03-13T18:15:58.058Z,13.60
2023-03-13T18:19:01.463Z,13.40
2023-03-13T18:22:05.686Z,13.50
2023-03-13T18:25:10.018Z,14.10
2023-03-13T18:28:13.318Z,13.40
2023-03-13T18:31:18.765Z,15.40
2023-03-13T18:34:23.848Z,13.40
2023-03-13T18:37:29.305Z,13.40
2023-03-13T18:40:34.343Z,13.30
2023-03-13T18:43:37.972Z,13.30
2023-03-13T18:46:43.416Z,13.30
2023-03-13T18:49:47.065Z,13.30
2023-03-13T18:52:50.074Z,13.20
2023-03-13T18:55:53.163Z,13.40
2023-03-13T18:58:57.331Z,13.10
2023-03-13T19:02:01.714Z,13.40
2023-03-13T19:05:05.032Z,13.20
2023-03-13T19:08:10.248Z,15.50
2023-03-13T19:11:14.559Z,13.50
2023-03-13T19:14:17.691Z,15.50
2023-03-13T19:17:26.938Z,13.60
2023-03-13T19:20:30.147Z,13.60
2023-03-13T19:23:33.852Z,12.80
2023-03-13T19:26:40.166Z,13.70
2023-03-13T19:29:43.574Z,13.70
2023-03-13T19:32:48.143Z,13.70
2023-03-13T19:35:52.199Z,13.70
2023-03-13T19:38:55.302Z,13.80
2023-03-13T19:41:58.710Z,13.80
2023-03-13T19:45:02.423Z,13.80
2023-03-13T19:48:07.059Z,13.70
2023-03-13T19:51:10.030Z,14.70
2023-03-13T19:54:13.522Z,13.70
2023-03-13T19:57:17.840Z,13.70
2023-03-13T20:00:23.041Z,13.70
2023-03-13T20:03:28.792Z,13.70
2023-03-13T20:06:33.401Z,13.70
2023-03-13T20:09:37.488Z,14.10
2023-03-13T20:12:41.624Z,13.70
2023-03-13T20:15:44.681Z,13.70
2023-03-13T20:18:50.599Z,13.70
2023-03-13T20:21:53.967Z,14.80
2023-03-13T20:24:56.843Z,13.70
2023-03-13T20:27:59.685Z,13.70
2023-03-13T20:31:02.816Z,13.60
2023-03-13T20:34:07.219Z,13.70
2023-03-13T20:37:10.368Z,13.70
2023-03-13T20:40:14.227Z,13.70
2023-03-13T20:43:17.654Z,13.70
2023-03-13T20:46:20.857Z,13.70
2023-03-13T20:49:25.218Z,13.60
2023-03-13T20:52:29.050Z,13.60
2023-03-13T20:55:32.690Z,13.60
2023-03-13T20:58:35.781Z,13.50
2023-03-13T21:01:38.829Z,14.40
2023-03-13T21:04:43.197Z,12.50
2023-03-13T21:07:46.288Z,13.40
2023-03-13T21:10:49.227Z,13.40
2023-03-13T21:13:52.698Z,14.80
2023-03-13T21:16:55.665Z,13.30
2023-03-13T21:20:00.257Z,13.40
2023-03-13T21:23:03.308Z,13.30
2023-03-13T21:26:06.805Z,13.30
2023-03-13T21:29:10.822Z,13.30
2023-03-13T21:32:14.476Z,13.00
2023-03-13T21:35:18.933Z,13.30
2023-03-13T21:38:21.927Z,13.80
2023-03-13T21:41:24.866Z,13.30
2023-03-13T21:44:27.896Z,13.30
2023-03-13T21:47:31.805Z,13.30
2023-03-13T21:50:36.210Z,13.30
2023-03-13T21:53:40.610Z,13.30
2023-03-13T21:56:43.543Z,13.30
2023-03-13T21:59:46.500Z,13.30
2023-03-13T22:02:49.481Z,13.30
2023-03-13T22:05:53.691Z,13.30
2023-03-13T22:08:56.764Z,13.30
2023-03-13T22:11:59.809Z,13.00
2023-03-13T22:15:02.810Z,13.30
2023-03-13T22:18:05.984Z,13.30
2023-03-13T22:21:10.792Z,13.20
2023-03-13T22:24:13.801Z,13.20
2023-03-13T22:27:17.947Z,13.10
2023-03-13T22:30:21.255Z,13.10
2023-03-13T22:33:24.077Z,13.00
2023-03-13T22:36:28.332Z,12.50
2023-03-13T22:39:31.304Z,12.90
2023-03-13T22:42:34.379Z,12.90
2023-03-13T22:45:37.452Z,13.10
2023-03-13T22:48:41.155Z,12.80
2023-03-13T22:51:45.424Z,12.80
2023-03-13T22:54:48.382Z,12.70
2023-03-13T22:57:51.303Z,12.70
2023-03-13T23:00:54.718Z,12.70
2023-03-13T23:03:57.964Z,12.70
2023-03-13T23:07:02.309Z,12.70
2023-03-13T23:10:06.070Z,12.70
2023-03-13T23:13:09.013Z,12.70
2023-03-13T23:16:13.303Z,12.70
2023-03-13T23:19:16.212Z,12.80
2023-03-13T23:22:21.908Z,12.80
2023-03-13T23:25:25.260Z,14.50
2023-03-13T23:28:28.170Z,12.80
2023-03-13T23:31:31.314Z,12.40
2023-03-13T23:34:36.354Z,12.90
2023-03-13T23:37:41.016Z,13.80
2023-03-13T23:40:43.952Z,13.00
2023-03-13T23:43:46.919Z,13.00
2023-03-13T23:46:49.858Z,13.70
2023-03-13T23:49:52.964Z,13.70
2023-03-13T23:52:57.368Z,11.30
2023-03-13T23:56:00.365Z,13.00
2023-03-13T23:59:03.316Z,13.00
